createdAt,value
2023-09-24T00:00:42.858Z,2.58
2023-09-24T00:01:26.811Z,2.78
2023-09-24T00:02:10.231Z,2.42
2023-09-24T00:02:53.886Z,2.60
2023-09-24T00:03:38.493Z,2.40
2023-09-24T00:04:21.362Z,2.60
2023-09-24T00:05:06.780Z,2.67
2023-09-24T00:05:49.409Z,2.88
2023-09-24T00:06:32.376Z,2.55
2023-09-24T00:07:16.638Z,3.22
2023-09-24T00:07:59.104Z,2.55
2023-09-24T00:08:41.582Z,2.72
2023-09-24T00:09:25.049Z,2.42
2023-09-24T00:10:08.251Z,2.78
2023-09-24T00:10:53.674Z,2.85
2023-09-24T00:11:38.059Z,2.42
2023-09-24T00:12:20.624Z,2.83
2023-09-24T00:13:03.422Z,2.72
2023-09-24T00:13:47.757Z,2.67
2023-09-24T00:14:31.698Z,2.88
2023-09-24T00:15:15.710Z,2.75
2023-09-24T00:16:05.982Z,2.78
2023-09-24T00:16:49.891Z,2.22
2023-09-24T00:17:33.531Z,2.78
2023-09-24T00:18:16.993Z,2.17
2023-09-24T00:18:59.992Z,2.83
2023-09-24T00:19:43.439Z,2.80
2023-09-24T00:20:26.196Z,2.83
2023-09-24T00:21:08.858Z,2.75
2023-09-24T00:21:52.377Z,2.58
2023-09-24T00:22:34.861Z,2.35
2023-09-24T00:23:17.360Z,2.38
2023-09-24T00:24:01.089Z,2.60
2023-09-24T00:24:44.064Z,2.80
2023-09-24T00:25:27.418Z,2.17
2023-09-24T00:26:10.856Z,2.55
2023-09-24T00:26:54.330Z,2.47
2023-09-24T00:27:36.902Z,2.70
2023-09-24T00:28:20.951Z,2.55
2023-09-24T00:29:04.259Z,2.50
2023-09-24T00:29:47.941Z,2.63
2023-09-24T00:30:30.602Z,2.40
2023-09-24T00:31:13.077Z,2.35
2023-09-24T00:31:58.018Z,2.65
2023-09-24T00:32:41.585Z,2.67
2023-09-24T00:33:25.682Z,2.83
2023-09-24T00:34:09.494Z,3.08
2023-09-24T00:34:51.928Z,2.88
2023-09-24T00:35:34.482Z,2.95
2023-09-24T00:36:17.957Z,2.42
2023-09-24T00:37:00.389Z,2.63
2023-09-24T00:37:43.823Z,2.70
2023-09-24T00:38:27.666Z,2.35
2023-09-24T00:39:10.214Z,2.47
2023-09-24T00:39:52.678Z,2.17
2023-09-24T00:40:36.159Z,2.50
2023-09-24T00:41:18.667Z,2.28
2023-09-24T00:42:01.397Z,2.67
2023-09-24T00:42:44.818Z,2.90
2023-09-24T00:43:29.746Z,2.63
2023-09-24T00:44:14.413Z,2.40
2023-09-24T00:44:56.988Z,2.30
2023-09-24T00:45:40.553Z,2.10
2023-09-24T00:46:23.186Z,2.65
2023-09-24T00:47:07.262Z,2.55
2023-09-24T00:47:51.614Z,2.83
2023-09-24T00:48:34.540Z,2.50
2023-09-24T00:49:17.112Z,2.60
2023-09-24T00:50:01.232Z,2.10
2023-09-24T00:50:43.706Z,2.55
2023-09-24T00:51:27.847Z,2.13
2023-09-24T00:52:11.742Z,1.85
2023-09-24T00:52:55.869Z,2.53
2023-09-24T00:53:39.300Z,2.53
2023-09-24T00:54:23.088Z,2.13
2023-09-24T00:55:07.413Z,2.00
2023-09-24T00:55:49.895Z,2.55
2023-09-24T00:56:34.290Z,2.20
2023-09-24T00:57:16.758Z,2.33
2023-09-24T00:57:59.302Z,2.15
2023-09-24T00:58:48.177Z,1.90
2023-09-24T00:59:31.453Z,2.42
2023-09-24T01:00:17.309Z,2.17
2023-09-24T01:01:43.340Z,2.00
2023-09-24T01:02:27.492Z,2.45
2023-09-24T01:03:13.589Z,2.42
2023-09-24T01:03:56.762Z,2.20
2023-09-24T01:04:39.437Z,2.13
2023-09-24T01:05:23.434Z,2.00
2023-09-24T01:06:07.716Z,2.25
2023-09-24T01:06:50.289Z,2.20
2023-09-24T01:07:33.942Z,2.33
2023-09-24T01:08:17.998Z,2.40
2023-09-24T01:09:00.921Z,1.95
2023-09-24T01:09:45.836Z,2.13
2023-09-24T01:10:28.319Z,1.95
2023-09-24T01:11:11.248Z,2.38
2023-09-24T01:11:56.784Z,1.98
2023-09-24T01:12:40.860Z,2.25
2023-09-24T01:13:25.269Z,1.92
2023-09-24T01:14:10.351Z,2.15
2023-09-24T01:14:54.795Z,1.73
2023-09-24T01:15:37.451Z,2.00
2023-09-24T01:16:21.109Z,2.13
2023-09-24T01:17:03.890Z,1.92
2023-09-24T01:17:49.132Z,2.35
2023-09-24T01:18:33.283Z,2.55
2023-09-24T01:19:16.102Z,1.77
2023-09-24T01:19:58.684Z,2.00
2023-09-24T01:20:42.787Z,2.13
2023-09-24T01:21:27.621Z,2.00
2023-09-24T01:22:11.799Z,1.83
2023-09-24T01:22:55.258Z,2.42
2023-09-24T01:23:38.214Z,2.28
2023-09-24T01:24:22.584Z,2.72
2023-09-24T01:25:07.064Z,2.80
2023-09-24T01:25:49.626Z,2.05
2023-09-24T01:26:32.797Z,2.13
2023-09-24T01:27:16.289Z,2.38
2023-09-24T01:27:59.318Z,2.22
2023-09-24T01:28:41.867Z,2.17
2023-09-24T01:29:26.079Z,1.92
2023-09-24T01:30:09.678Z,2.00
2023-09-24T01:30:52.196Z,2.33
2023-09-24T01:31:38.030Z,1.90
2023-09-24T01:33:03.158Z,1.98
2023-09-24T01:33:49.593Z,2.30
2023-09-24T01:34:32.805Z,2.13
2023-09-24T01:35:16.682Z,1.90
2023-09-24T01:36:00.520Z,2.13
2023-09-24T01:36:43.076Z,1.75
2023-09-24T01:37:26.970Z,1.90
2023-09-24T01:38:11.286Z,2.10
2023-09-24T01:38:54.507Z,2.08
2023-09-24T01:39:37.692Z,2.58
2023-09-24T01:40:25.346Z,1.92
2023-09-24T01:41:11.113Z,1.98
2023-09-24T01:41:53.854Z,2.42
2023-09-24T01:42:37.608Z,2.15
2023-09-24T01:43:20.098Z,2.38
2023-09-24T01:44:04.118Z,2.28
2023-09-24T01:44:49.004Z,1.60
2023-09-24T01:45:31.524Z,2.10
2023-09-24T01:46:15.166Z,2.10
2023-09-24T01:46:58.191Z,2.08
2023-09-24T01:47:42.172Z,2.15
2023-09-24T01:48:25.618Z,1.90
2023-09-24T01:49:11.351Z,1.70
2023-09-24T01:49:53.871Z,2.00
2023-09-24T01:50:38.178Z,1.67
2023-09-24T01:51:22.361Z,2.08
2023-09-24T01:52:05.109Z,2.47
2023-09-24T01:52:48.987Z,2.20
2023-09-24T01:53:34.100Z,1.85
2023-09-24T01:54:16.591Z,2.13
2023-09-24T01:54:59.134Z,2.10
2023-09-24T01:55:43.133Z,1.83
2023-09-24T01:56:25.814Z,2.20
2023-09-24T01:57:08.958Z,2.55
2023-09-24T01:57:52.694Z,2.10
2023-09-24T01:58:36.568Z,1.80
2023-09-24T01:59:20.414Z,1.88
2023-09-24T02:00:22.751Z,1.90
2023-09-24T02:01:05.403Z,2.88
2023-09-24T02:01:48.902Z,1.83
2023-09-24T02:02:35.008Z,1.98
2023-09-24T02:03:17.768Z,2.58
2023-09-24T02:04:02.980Z,1.95
2023-09-24T02:04:47.070Z,1.75
2023-09-24T02:05:33.695Z,2.38
2023-09-24T02:06:17.302Z,1.95
2023-09-24T02:07:01.467Z,2.10
2023-09-24T02:07:44.038Z,2.00
2023-09-24T02:08:31.238Z,2.20
2023-09-24T02:09:15.500Z,2.15
2023-09-24T02:09:58.129Z,2.30
2023-09-24T02:10:43.354Z,2.08
2023-09-24T02:11:25.797Z,1.92
2023-09-24T02:12:10.105Z,2.40
2023-09-24T02:12:53.886Z,2.25
2023-09-24T02:13:36.322Z,1.90
2023-09-24T02:14:18.755Z,2.30
2023-09-24T02:15:02.718Z,2.35
2023-09-24T02:15:45.638Z,2.20
2023-09-24T02:16:28.974Z,2.25
2023-09-24T02:17:12.688Z,1.98
2023-09-24T02:17:55.218Z,1.77
2023-09-24T02:18:39.143Z,2.20
2023-09-24T02:19:25.374Z,2.53
2023-09-24T02:20:26.919Z,2.33
2023-09-24T02:21:15.389Z,2.08
2023-09-24T02:21:57.853Z,2.15
2023-09-24T02:22:40.542Z,2.15
2023-09-24T02:23:24.649Z,1.85
2023-09-24T02:24:11.350Z,2.20
2023-09-24T02:24:53.840Z,2.20
2023-09-24T02:25:38.588Z,2.22
2023-09-24T02:26:21.173Z,1.98
2023-09-24T02:27:05.215Z,2.10
2023-09-24T02:27:50.137Z,2.13
2023-09-24T02:28:34.510Z,1.80
2023-09-24T02:29:19.997Z,2.00
2023-09-24T02:30:03.259Z,2.33
2023-09-24T02:30:47.025Z,2.33
2023-09-24T02:31:32.066Z,2.28
2023-09-24T02:32:14.622Z,1.73
2023-09-24T02:32:59.078Z,1.83
2023-09-24T02:33:41.918Z,2.55
2023-09-24T02:34:24.597Z,2.10
2023-09-24T02:35:09.878Z,1.83
2023-09-24T02:35:53.313Z,1.80
2023-09-24T02:36:35.964Z,2.28
2023-09-24T02:37:19.437Z,2.15
2023-09-24T02:38:01.921Z,2.05
2023-09-24T02:38:44.646Z,1.85
2023-09-24T02:39:32.952Z,2.05
2023-09-24T02:40:18.634Z,1.67
2023-09-24T02:41:01.246Z,1.70
2023-09-24T02:41:46.375Z,2.45
2023-09-24T02:42:28.861Z,1.75
2023-09-24T02:43:13.836Z,1.90
2023-09-24T02:43:57.424Z,1.83
2023-09-24T02:44:39.964Z,1.83
2023-09-24T02:45:23.944Z,1.80
2023-09-24T02:46:08.646Z,1.80
2023-09-24T02:46:51.057Z,1.92
2023-09-24T02:47:34.281Z,2.20
2023-09-24T02:48:19.514Z,2.00
2023-09-24T02:49:02.119Z,1.95
2023-09-24T02:49:44.635Z,1.73
2023-09-24T02:50:30.227Z,2.10
2023-09-24T02:51:13.988Z,2.00
2023-09-24T02:51:56.976Z,1.85
2023-09-24T02:52:41.125Z,1.77
2023-09-24T02:53:23.711Z,1.75
2023-09-24T02:54:08.423Z,2.10
2023-09-24T02:54:53.389Z,1.77
2023-09-24T02:55:37.333Z,2.25
2023-09-24T02:56:20.218Z,1.83
2023-09-24T02:57:04.953Z,1.88
2023-09-24T02:57:48.264Z,2.00
2023-09-24T02:58:31.990Z,2.28
2023-09-24T02:59:16.023Z,1.60
2023-09-24T02:59:59.792Z,2.10
2023-09-24T03:00:42.993Z,1.80
2023-09-24T03:01:28.011Z,1.58
2023-09-24T03:02:10.453Z,2.05
2023-09-24T03:02:55.196Z,1.63
2023-09-24T03:03:39.310Z,2.00
2023-09-24T03:04:22.965Z,2.10
2023-09-24T03:05:07.048Z,2.22
2023-09-24T03:05:50.551Z,1.55
2023-09-24T03:06:34.975Z,1.77
2023-09-24T03:07:17.474Z,1.77
2023-09-24T03:08:01.958Z,1.92
2023-09-24T03:08:44.497Z,1.90
2023-09-24T03:09:26.968Z,1.98
2023-09-24T03:10:14.433Z,1.60
2023-09-24T03:10:56.886Z,2.10
2023-09-24T03:11:39.557Z,1.95
2023-09-24T03:12:23.052Z,1.80
2023-09-24T03:13:07.047Z,1.60
2023-09-24T03:13:49.650Z,1.92
2023-09-24T03:14:33.341Z,2.03
2023-09-24T03:15:16.394Z,2.10
2023-09-24T03:15:59.944Z,2.38
2023-09-24T03:16:42.536Z,1.70
2023-09-24T03:17:25.135Z,1.98
2023-09-24T03:18:08.791Z,2.33
2023-09-24T03:18:51.357Z,1.80
2023-09-24T03:19:33.801Z,1.77
2023-09-24T03:20:18.145Z,2.13
2023-09-24T03:21:00.791Z,1.98
2023-09-24T03:21:43.225Z,1.90
2023-09-24T03:22:25.923Z,1.67
2023-09-24T03:23:11.141Z,1.95
2023-09-24T03:23:53.672Z,1.63
2023-09-24T03:24:36.221Z,2.00
2023-09-24T03:25:22.443Z,1.98
2023-09-24T03:26:04.959Z,2.08
2023-09-24T03:26:48.505Z,2.58
2023-09-24T03:27:32.696Z,2.08
2023-09-24T03:28:15.133Z,1.88
2023-09-24T03:28:57.687Z,2.00
2023-09-24T03:29:41.193Z,2.00
2023-09-24T03:30:23.993Z,2.03
2023-09-24T03:31:06.478Z,2.00
2023-09-24T03:31:49.955Z,1.88
2023-09-24T03:32:32.644Z,2.05
2023-09-24T03:33:15.374Z,1.92
2023-09-24T03:33:59.034Z,1.80
2023-09-24T03:34:41.608Z,1.92
2023-09-24T03:35:26.105Z,1.90
2023-09-24T03:36:10.080Z,1.70
2023-09-24T03:36:54.461Z,1.85
2023-09-24T03:37:38.646Z,2.20
2023-09-24T03:38:22.865Z,2.35
2023-09-24T03:39:07.452Z,2.22
2023-09-24T03:39:49.997Z,1.85
2023-09-24T03:40:36.080Z,1.83
2023-09-24T03:41:18.791Z,1.85
2023-09-24T03:42:01.476Z,1.65
2023-09-24T03:42:45.442Z,1.95
2023-09-24T03:43:27.943Z,1.95
2023-09-24T03:44:10.406Z,2.05
2023-09-24T03:44:53.989Z,1.90
2023-09-24T03:45:36.562Z,1.90
2023-09-24T03:46:19.048Z,2.45
2023-09-24T03:47:03.492Z,1.63
2023-09-24T03:47:46.960Z,1.88
2023-09-24T03:48:29.801Z,2.10
2023-09-24T03:49:13.810Z,1.80
2023-09-24T03:49:56.276Z,2.45
2023-09-24T03:50:40.558Z,2.00
2023-09-24T03:51:23.095Z,2.10
2023-09-24T03:52:06.515Z,1.88
2023-09-24T03:52:51.240Z,1.95
2023-09-24T03:53:34.658Z,1.80
2023-09-24T03:54:17.605Z,2.00
2023-09-24T03:55:01.599Z,2.30
2023-09-24T03:55:46.602Z,1.80
2023-09-24T03:56:29.050Z,2.22
2023-09-24T03:57:12.546Z,2.10
2023-09-24T03:57:55.445Z,2.00
2023-09-24T03:58:38.302Z,1.80
2023-09-24T03:59:21.705Z,1.50
2023-09-24T04:00:14.629Z,1.92
2023-09-24T04:00:57.060Z,1.95
2023-09-24T04:01:41.292Z,2.15
2023-09-24T04:02:24.314Z,2.08
2023-09-24T04:03:06.933Z,2.00
2023-09-24T04:03:51.180Z,1.92
2023-09-24T04:04:34.285Z,2.20
2023-09-24T04:05:18.943Z,1.90
2023-09-24T04:06:02.480Z,1.90
2023-09-24T04:06:45.466Z,1.73
2023-09-24T04:07:30.126Z,2.17
2023-09-24T04:08:13.584Z,1.92
2023-09-24T04:08:56.095Z,1.75
2023-09-24T04:09:38.572Z,1.80
2023-09-24T04:10:23.001Z,2.15
2023-09-24T04:11:09.880Z,1.90
2023-09-24T04:11:52.326Z,2.15
2023-09-24T04:12:35.988Z,1.88
2023-09-24T04:13:18.838Z,1.80
2023-09-24T04:14:01.862Z,2.03
2023-09-24T04:14:45.542Z,2.40
2023-09-24T04:15:29.916Z,2.10
2023-09-24T04:16:13.788Z,1.95
2023-09-24T04:16:57.602Z,2.10
2023-09-24T04:17:40.735Z,1.70
2023-09-24T04:18:23.343Z,1.98
2023-09-24T04:19:08.896Z,2.05
2023-09-24T04:19:53.064Z,1.80
2023-09-24T04:20:35.608Z,1.67
2023-09-24T04:21:19.991Z,1.85
2023-09-24T04:22:02.469Z,2.03
2023-09-24T04:22:45.503Z,2.25
2023-09-24T04:23:29.126Z,2.17
2023-09-24T04:24:11.641Z,2.00
2023-09-24T04:24:55.292Z,2.10
2023-09-24T04:25:40.929Z,1.88
2023-09-24T04:26:26.147Z,2.30
2023-09-24T04:27:09.204Z,2.10
2023-09-24T04:27:53.110Z,2.30
2023-09-24T04:28:36.710Z,2.55
2023-09-24T04:29:19.794Z,2.78
2023-09-24T04:30:06.168Z,1.95
2023-09-24T04:30:48.639Z,2.10
2023-09-24T04:31:31.063Z,1.80
2023-09-24T04:32:14.530Z,2.40
2023-09-24T04:32:59.228Z,2.55
2023-09-24T04:33:42.993Z,1.95
2023-09-24T04:34:26.654Z,2.60
2023-09-24T04:35:09.804Z,1.90
2023-09-24T04:35:52.935Z,2.22
2023-09-24T04:36:36.549Z,2.35
2023-09-24T04:37:18.987Z,2.58
2023-09-24T04:38:02.274Z,3.05
2023-09-24T04:38:45.818Z,2.45
2023-09-24T04:39:29.717Z,2.40
2023-09-24T04:40:15.260Z,2.22
2023-09-24T04:40:59.253Z,2.53
2023-09-24T04:41:44.676Z,2.72
2023-09-24T04:42:27.190Z,2.80
2023-09-24T04:43:16.672Z,2.60
2023-09-24T04:43:59.117Z,2.60
2023-09-24T04:44:43.012Z,2.75
2023-09-24T04:45:26.500Z,2.85
2023-09-24T04:46:09.398Z,2.53
2023-09-24T04:46:53.016Z,2.78
2023-09-24T04:47:36.507Z,2.72
2023-09-24T04:48:20.015Z,3.40
2023-09-24T04:49:06.185Z,2.72
2023-09-24T04:49:49.774Z,2.38
2023-09-24T04:50:32.243Z,3.17
2023-09-24T04:51:14.876Z,3.25
2023-09-24T04:51:58.329Z,3.05
2023-09-24T04:52:43.124Z,3.28
2023-09-24T04:53:26.288Z,3.15
2023-09-24T04:54:09.723Z,3.63
2023-09-24T04:54:54.382Z,3.50
2023-09-24T04:55:36.814Z,3.60
2023-09-24T04:56:20.295Z,3.83
2023-09-24T04:57:05.250Z,3.05
2023-09-24T04:57:47.809Z,3.63
2023-09-24T04:58:31.251Z,3.65
2023-09-24T04:59:13.760Z,4.15
2023-09-24T04:59:56.469Z,3.90
2023-09-24T05:00:40.075Z,3.25
2023-09-24T05:01:23.016Z,3.47
2023-09-24T05:02:06.241Z,3.40
2023-09-24T05:02:49.847Z,3.72
2023-09-24T05:03:33.243Z,3.90
2023-09-24T05:04:18.467Z,3.28
2023-09-24T05:05:02.107Z,3.80
2023-09-24T05:05:45.166Z,4.00
2023-09-24T05:06:28.618Z,3.75
2023-09-24T05:07:12.213Z,3.30
2023-09-24T05:07:54.724Z,3.35
2023-09-24T05:08:38.884Z,3.50
2023-09-24T05:09:23.096Z,3.40
2023-09-24T05:10:06.858Z,3.65
2023-09-24T05:10:50.892Z,3.40
2023-09-24T05:11:34.383Z,3.42
2023-09-24T05:12:18.239Z,3.75
2023-09-24T05:13:00.631Z,3.47
2023-09-24T05:13:46.009Z,4.13
2023-09-24T05:14:28.614Z,3.00
2023-09-24T05:15:11.550Z,3.65
2023-09-24T05:16:00.863Z,4.03
2023-09-24T05:16:43.330Z,3.58
2023-09-24T05:17:26.033Z,3.05
2023-09-24T05:18:10.278Z,3.83
2023-09-24T05:18:53.029Z,4.00
2023-09-24T05:19:35.512Z,3.42
2023-09-24T05:20:19.055Z,3.38
2023-09-24T05:21:01.548Z,3.33
2023-09-24T05:21:46.007Z,3.60
2023-09-24T05:22:28.889Z,3.65
2023-09-24T05:23:11.378Z,3.22
2023-09-24T05:23:55.001Z,3.45
2023-09-24T05:24:37.549Z,3.45
2023-09-24T05:25:20.983Z,3.35
2023-09-24T05:26:04.411Z,3.67
2023-09-24T05:26:47.255Z,3.60
2023-09-24T05:27:33.481Z,3.78
2023-09-24T05:28:17.111Z,3.90
2023-09-24T05:28:59.627Z,3.55
2023-09-24T05:29:42.059Z,3.70
2023-09-24T05:30:25.500Z,4.00
2023-09-24T05:31:08.293Z,3.97
2023-09-24T05:31:50.762Z,3.97
2023-09-24T05:32:35.316Z,3.88
2023-09-24T05:33:18.020Z,4.32
2023-09-24T05:34:00.533Z,3.80
2023-09-24T05:34:42.978Z,4.05
2023-09-24T05:35:26.516Z,4.25
2023-09-24T05:36:09.704Z,4.30
2023-09-24T05:36:52.510Z,4.47
2023-09-24T05:37:36.023Z,4.30
2023-09-24T05:38:18.539Z,3.80
2023-09-24T05:39:01.130Z,4.28
2023-09-24T05:39:44.605Z,4.03
2023-09-24T05:40:27.204Z,4.03
2023-09-24T05:41:09.764Z,3.35
2023-09-24T05:41:53.233Z,4.07
2023-09-24T05:42:37.314Z,3.50
2023-09-24T05:43:20.228Z,3.83
2023-09-24T05:44:05.837Z,5.43
2023-09-24T05:44:48.352Z,3.70
2023-09-24T05:45:31.127Z,3.92
2023-09-24T05:46:14.783Z,3.50
2023-09-24T05:46:57.305Z,3.22
2023-09-24T05:47:39.823Z,3.83
2023-09-24T05:48:23.518Z,3.75
2023-09-24T05:49:07.273Z,3.70
2023-09-24T05:49:49.801Z,3.47
2023-09-24T05:50:33.290Z,3.45
2023-09-24T05:51:15.803Z,3.55
2023-09-24T05:51:58.517Z,3.42
2023-09-24T05:52:41.968Z,3.80
2023-09-24T05:53:24.398Z,3.63
2023-09-24T05:54:08.205Z,3.88
2023-09-24T05:54:52.420Z,4.05
2023-09-24T05:55:35.036Z,3.92
2023-09-24T05:56:17.505Z,3.75
2023-09-24T05:57:01.284Z,3.50
2023-09-24T05:57:45.186Z,3.35
2023-09-24T05:58:27.711Z,3.55
2023-09-24T05:59:11.396Z,3.65
2023-09-24T05:59:54.203Z,3.97
2023-09-24T06:00:38.308Z,3.42
2023-09-24T06:01:21.808Z,4.38
2023-09-24T06:02:04.334Z,3.67
2023-09-24T06:02:46.996Z,3.20
2023-09-24T06:03:30.726Z,3.75
2023-09-24T06:04:13.851Z,3.42
2023-09-24T06:04:56.422Z,3.35
2023-09-24T06:05:40.100Z,3.50
2023-09-24T06:06:23.557Z,3.67
2023-09-24T06:07:06.461Z,3.60
2023-09-24T06:07:48.899Z,3.22
2023-09-24T06:08:32.347Z,3.22
2023-09-24T06:09:17.466Z,3.60
2023-09-24T06:10:05.815Z,3.58
2023-09-24T06:10:49.713Z,3.40
2023-09-24T06:11:32.191Z,3.10
2023-09-24T06:12:15.130Z,3.40
2023-09-24T06:12:59.927Z,3.30
2023-09-24T06:13:42.450Z,3.17
2023-09-24T06:14:26.159Z,3.35
2023-09-24T06:15:12.251Z,2.90
2023-09-24T06:16:00.492Z,3.42
2023-09-24T06:16:43.068Z,3.47
2023-09-24T06:17:26.778Z,3.00
2023-09-24T06:18:10.264Z,2.90
2023-09-24T06:18:53.141Z,3.25
2023-09-24T06:19:36.723Z,4.05
2023-09-24T06:20:19.395Z,2.97
2023-09-24T06:21:04.107Z,3.33
2023-09-24T06:21:50.620Z,3.15
2023-09-24T06:22:33.140Z,3.10
2023-09-24T06:23:15.579Z,2.75
2023-09-24T06:23:59.245Z,2.92
2023-09-24T06:24:43.322Z,3.53
2023-09-24T06:25:25.900Z,2.90
2023-09-24T06:26:09.325Z,3.35
2023-09-24T06:26:51.910Z,3.15
2023-09-24T06:27:34.553Z,2.97
2023-09-24T06:28:19.350Z,3.15
2023-09-24T06:29:10.983Z,3.05
2023-09-24T06:29:55.463Z,2.70
2023-09-24T06:30:38.027Z,3.10
2023-09-24T06:31:21.596Z,2.42
2023-09-24T06:32:05.352Z,3.00
2023-09-24T06:32:47.913Z,3.50
2023-09-24T06:33:30.684Z,3.05
2023-09-24T06:34:14.327Z,2.88
2023-09-24T06:34:57.073Z,3.70
2023-09-24T06:35:39.870Z,3.15
2023-09-24T06:36:23.374Z,3.15
2023-09-24T06:37:06.009Z,3.60
2023-09-24T06:37:48.484Z,3.35
2023-09-24T06:38:32.123Z,3.10
2023-09-24T06:39:15.212Z,2.83
2023-09-24T06:39:58.272Z,3.35
2023-09-24T06:40:41.738Z,2.85
2023-09-24T06:41:24.430Z,2.85
2023-09-24T06:42:08.118Z,2.70
2023-09-24T06:42:51.769Z,2.70
2023-09-24T06:43:35.640Z,2.65
2023-09-24T06:44:22.179Z,2.70
2023-09-24T06:45:09.840Z,2.97
2023-09-24T06:45:53.676Z,2.75
2023-09-24T06:46:36.222Z,3.22
2023-09-24T06:47:19.695Z,2.40
2023-09-24T06:48:03.021Z,2.50
2023-09-24T06:48:45.618Z,2.95
2023-09-24T06:49:29.182Z,2.75
2023-09-24T06:50:12.922Z,2.78
2023-09-24T06:50:55.572Z,2.55
2023-09-24T06:51:39.045Z,2.40
2023-09-24T06:52:21.520Z,2.67
2023-09-24T06:53:04.341Z,2.30
2023-09-24T06:53:47.919Z,2.60
2023-09-24T06:54:33.301Z,2.40
2023-09-24T06:55:16.709Z,2.40
2023-09-24T06:56:00.149Z,2.83
2023-09-24T06:56:42.712Z,2.30
2023-09-24T06:57:25.245Z,2.70
2023-09-24T06:58:08.869Z,2.75
2023-09-24T06:58:53.407Z,2.08
2023-09-24T06:59:37.122Z,2.60
2023-09-24T07:00:19.713Z,2.10
2023-09-24T07:01:02.454Z,2.55
2023-09-24T07:01:45.967Z,2.80
2023-09-24T07:02:28.449Z,2.40
2023-09-24T07:03:11.531Z,2.60
2023-09-24T07:03:55.811Z,2.45
2023-09-24T07:04:38.584Z,2.70
2023-09-24T07:05:23.681Z,2.60
2023-09-24T07:06:08.162Z,2.40
2023-09-24T07:06:52.467Z,2.50
2023-09-24T07:07:35.046Z,2.40
2023-09-24T07:08:18.509Z,2.28
2023-09-24T07:09:01.408Z,2.10
2023-09-24T07:09:44.007Z,2.70
2023-09-24T07:10:29.937Z,2.30
2023-09-24T07:11:26.789Z,2.40
2023-09-24T07:12:09.373Z,2.33
2023-09-24T07:12:54.004Z,2.00
2023-09-24T07:13:36.506Z,2.17
2023-09-24T07:14:20.866Z,2.30
2023-09-24T07:15:04.503Z,2.40
2023-09-24T07:15:47.090Z,2.50
2023-09-24T07:16:29.942Z,2.42
2023-09-24T07:17:13.433Z,2.28
2023-09-24T07:17:56.569Z,2.00
2023-09-24T07:18:39.918Z,2.35
2023-09-24T07:19:23.437Z,2.45
2023-09-24T07:20:06.981Z,2.38
2023-09-24T07:20:49.828Z,2.33
2023-09-24T07:21:37.222Z,2.17
2023-09-24T07:22:26.104Z,2.22
2023-09-24T07:23:09.589Z,2.22
2023-09-24T07:23:54.117Z,2.20
2023-09-24T07:24:38.834Z,1.95
2023-09-24T07:25:22.336Z,2.20
2023-09-24T07:26:09.309Z,2.03
2023-09-24T07:26:51.824Z,1.80
2023-09-24T07:27:36.074Z,1.90
2023-09-24T07:28:18.494Z,2.65
2023-09-24T07:29:01.865Z,1.83
2023-09-24T07:29:48.087Z,2.38
2023-09-24T07:30:30.621Z,2.63
2023-09-24T07:31:16.987Z,1.98
2023-09-24T07:32:00.487Z,1.92
2023-09-24T07:32:43.136Z,2.03
2023-09-24T07:33:27.738Z,1.95
2023-09-24T07:34:11.722Z,1.80
2023-09-24T07:34:54.265Z,2.42
2023-09-24T07:35:36.965Z,2.00
2023-09-24T07:36:32.103Z,1.77
2023-09-24T07:37:46.252Z,1.98
2023-09-24T07:38:29.748Z,2.50
2023-09-24T07:39:12.317Z,1.85
2023-09-24T07:39:54.791Z,1.90
2023-09-24T07:40:38.729Z,1.90
2023-09-24T07:41:22.410Z,2.17
2023-09-24T07:42:05.266Z,2.00
2023-09-24T07:42:48.784Z,2.05
2023-09-24T07:43:31.560Z,2.97
2023-09-24T07:44:14.073Z,1.83
2023-09-24T07:44:59.007Z,1.75
2023-09-24T07:45:44.062Z,1.95
2023-09-24T07:46:26.678Z,2.08
2023-09-24T07:47:10.117Z,2.10
2023-09-24T07:47:52.708Z,2.03
2023-09-24T07:48:35.240Z,1.60
2023-09-24T07:49:18.749Z,1.65
2023-09-24T07:50:01.243Z,2.15
2023-09-24T07:50:51.218Z,1.92
2023-09-24T07:51:35.512Z,1.40
2023-09-24T07:52:17.966Z,1.83
2023-09-24T07:53:00.379Z,1.70
2023-09-24T07:53:43.869Z,1.95
2023-09-24T07:54:28.209Z,1.50
2023-09-24T07:55:10.779Z,1.85
2023-09-24T07:55:57.851Z,1.80
2023-09-24T07:56:42.974Z,1.70
2023-09-24T07:57:25.469Z,1.60
2023-09-24T07:58:08.898Z,2.10
2023-09-24T07:58:51.406Z,2.03
2023-09-24T07:59:34.874Z,2.03
2023-09-24T08:00:19.627Z,1.90
2023-09-24T08:01:06.652Z,1.80
2023-09-24T08:01:50.301Z,2.10
2023-09-24T08:02:33.034Z,2.17
2023-09-24T08:03:15.594Z,2.22
2023-09-24T08:03:59.212Z,2.00
2023-09-24T08:04:41.917Z,1.65
2023-09-24T08:05:24.520Z,1.55
2023-09-24T08:06:08.556Z,1.98
2023-09-24T08:06:51.325Z,1.98
2023-09-24T08:07:37.299Z,1.70
2023-09-24T08:08:19.713Z,2.03
2023-09-24T08:09:18.419Z,1.83
2023-09-24T08:10:06.088Z,1.73
2023-09-24T08:10:48.593Z,2.00
2023-09-24T08:11:31.053Z,1.70
2023-09-24T08:12:17.404Z,1.70
2023-09-24T08:12:59.865Z,1.95
2023-09-24T08:13:42.338Z,1.80
2023-09-24T08:14:26.094Z,2.00
2023-09-24T08:15:09.555Z,1.40
2023-09-24T08:15:53.894Z,2.00
2023-09-24T08:16:37.549Z,2.00
2023-09-24T08:17:20.265Z,1.80
2023-09-24T08:18:03.974Z,1.70
2023-09-24T08:18:48.499Z,1.27
2023-09-24T08:19:31.987Z,1.60
2023-09-24T08:20:14.813Z,1.52
2023-09-24T08:20:59.294Z,1.65
2023-09-24T08:21:41.745Z,1.38
2023-09-24T08:22:24.532Z,1.50
2023-09-24T08:23:08.192Z,1.45
2023-09-24T08:23:50.932Z,1.50
2023-09-24T08:24:33.614Z,1.73
2023-09-24T08:25:17.230Z,1.60
2023-09-24T08:26:00.607Z,1.80
2023-09-24T08:26:43.098Z,1.23
2023-09-24T08:27:26.633Z,1.50
2023-09-24T08:28:09.710Z,1.55
2023-09-24T08:28:53.309Z,1.50
2023-09-24T08:29:35.747Z,1.40
2023-09-24T08:30:18.470Z,1.23
2023-09-24T08:31:10.618Z,1.52
2023-09-24T08:31:53.333Z,1.35
2023-09-24T08:32:36.035Z,1.60
2023-09-24T08:33:19.759Z,1.38
2023-09-24T08:34:02.284Z,1.45
2023-09-24T08:34:44.805Z,1.73
2023-09-24T08:35:28.639Z,1.55
2023-09-24T08:36:12.452Z,1.35
2023-09-24T08:36:55.206Z,1.60
2023-09-24T08:37:38.877Z,1.30
2023-09-24T08:38:22.157Z,1.60
2023-09-24T08:39:07.121Z,1.30
2023-09-24T08:39:50.827Z,1.67
2023-09-24T08:40:33.700Z,1.63
2023-09-24T08:41:17.266Z,1.70
2023-09-24T08:42:01.193Z,1.70
2023-09-24T08:42:47.114Z,1.60
2023-09-24T08:43:31.392Z,1.50
2023-09-24T08:44:17.810Z,1.55
2023-09-24T08:45:11.778Z,1.30
2023-09-24T08:45:55.593Z,1.08
2023-09-24T08:46:39.909Z,1.50
2023-09-24T08:47:22.925Z,1.08
2023-09-24T08:48:10.899Z,1.27
2023-09-24T08:48:54.150Z,1.20
2023-09-24T08:49:36.902Z,1.35
2023-09-24T08:50:20.392Z,1.25
2023-09-24T08:51:04.161Z,1.10
2023-09-24T08:51:47.400Z,1.27
2023-09-24T08:52:31.017Z,1.45
2023-09-24T08:53:17.888Z,1.30
2023-09-24T08:54:00.538Z,1.17
2023-09-24T08:54:44.157Z,1.15
2023-09-24T08:55:27.807Z,1.25
2023-09-24T08:56:13.336Z,1.42
2023-09-24T08:56:57.754Z,1.30
2023-09-24T08:57:40.717Z,1.10
2023-09-24T08:58:25.099Z,1.10
2023-09-24T08:59:08.551Z,1.15
2023-09-24T08:59:52.097Z,1.20
2023-09-24T09:00:34.684Z,1.10
2023-09-24T09:01:18.186Z,1.30
2023-09-24T09:02:02.770Z,1.40
2023-09-24T09:02:45.636Z,1.10
2023-09-24T09:03:30.197Z,1.63
2023-09-24T09:04:12.791Z,1.40
2023-09-24T09:04:56.336Z,1.25
2023-09-24T09:05:40.721Z,1.17
2023-09-24T09:06:32.252Z,1.50
2023-09-24T09:07:15.114Z,1.15
2023-09-24T09:08:00.156Z,1.77
2023-09-24T09:08:58.159Z,1.10
2023-09-24T09:09:42.625Z,1.10
2023-09-24T09:10:27.415Z,0.90
2023-09-24T09:11:09.851Z,1.02
2023-09-24T09:11:52.310Z,0.90
2023-09-24T09:12:35.871Z,1.20
2023-09-24T09:13:19.593Z,1.20
2023-09-24T09:14:05.964Z,1.00
2023-09-24T09:14:49.547Z,1.30
2023-09-24T09:15:32.395Z,1.10
2023-09-24T09:16:15.839Z,1.23
2023-09-24T09:17:00.764Z,1.60
2023-09-24T09:17:44.919Z,1.40
2023-09-24T09:18:29.590Z,1.40
2023-09-24T09:19:13.225Z,1.10
2023-09-24T09:19:57.545Z,1.30
2023-09-24T09:20:41.203Z,1.65
2023-09-24T09:21:27.866Z,1.30
2023-09-24T09:22:18.342Z,1.00
2023-09-24T09:23:00.828Z,0.90
2023-09-24T09:23:45.940Z,1.00
2023-09-24T09:24:28.800Z,1.50
2023-09-24T09:25:11.692Z,1.33
2023-09-24T09:25:55.776Z,1.10
2023-09-24T09:26:39.263Z,1.25
2023-09-24T09:27:21.722Z,1.10
2023-09-24T09:28:05.553Z,1.20
2023-09-24T09:28:48.165Z,1.10
2023-09-24T09:29:31.063Z,1.00
2023-09-24T09:30:16.054Z,1.05
2023-09-24T09:31:00.004Z,1.17
2023-09-24T09:31:50.163Z,1.35
2023-09-24T09:32:38.432Z,1.00
2023-09-24T09:33:27.604Z,1.17
2023-09-24T09:34:10.077Z,1.30
2023-09-24T09:34:54.670Z,0.95
2023-09-24T09:35:37.763Z,0.82
2023-09-24T09:36:24.353Z,0.80
2023-09-24T09:37:17.907Z,0.93
2023-09-24T09:38:13.009Z,1.10
2023-09-24T09:38:58.580Z,1.05
2023-09-24T09:39:41.228Z,1.00
2023-09-24T09:40:23.787Z,0.90
2023-09-24T09:41:08.193Z,0.90
2023-09-24T09:41:53.096Z,0.90
2023-09-24T09:42:36.920Z,0.80
2023-09-24T09:43:23.921Z,0.80
2023-09-24T09:44:07.122Z,0.93
2023-09-24T09:44:52.201Z,0.85
2023-09-24T09:45:35.745Z,1.08
2023-09-24T09:46:20.112Z,0.80